Wetterdaten vom Samstag, 21. Juli 2018

Temperatur Taupunkt Windchill Luftfeuchte Luftdruck Solarstrahlung Regen ET
(Verdunstung von Wasser)
Wind
Max 21.4 °C
00:00
18.3 °C
16:50
21.4 °C
00:00
91%
22:55
1000 hPa
22:45
313 W/m²
12:25
9.9 km/h
16:55 km/h
Durchschnitt 19.9 °C 16 °C 19.8 °C 79% 997.6 hPa 159 W/m² 1.2 mm 1.803 mm 2.9 km/h
Min 17.9 °C
23:05
12.4 °C
01:15
17.9 °C
04:20
58%
00:05
995.7 hPa
05:45
0 km/h (Böe)
00:00 km/h
Zeit
00:00 21.4 °C 13.0 °C 21.4 °C 59% 997.2 hPa 0 W/m² 0.0 mm 0.000 mm 0.0 km/h
00:05 21.4 °C 12.8 °C 21.4 °C 58% 997.3 hPa 0 W/m² 0.0 mm 0.000 mm 0.0 km/h
00:10 21.4 °C 13.0 °C 21.4 °C 59% 997.3 hPa 0 W/m² 0.0 mm 0.000 mm 0.8 km/h
00:15 21.4 °C 13.0 °C 21.4 °C 59% 997.2 hPa 0 W/m² 0.0 mm 0.000 mm 0.0 km/h
00:20 21.3 °C 13.0 °C 21.3 °C 59% 997.2 hPa 0 W/m² 0.0 mm 0.000 mm 0.6 km/h
00:25 21.2 °C 12.9 °C 21.2 °C 59% 997.3 hPa 0 W/m² 0.0 mm 0.000 mm 4.1 km/h
00:30 21.1 °C 13.0 °C 21.1 °C 60% 997.2 hPa 0 W/m² 0.0 mm 0.000 mm 4.0 km/h
00:35 21.1 °C 13.0 °C 21.1 °C 60% 997.1 hPa 0 W/m² 0.0 mm 0.000 mm 2.1 km/h
00:40 21.0 °C 12.9 °C 21.0 °C 60% 996.9 hPa 0 W/m² 0.0 mm 0.000 mm 3.7 km/h
00:45 20.9 °C 12.8 °C 20.9 °C 60% 996.8 hPa 0 W/m² 0.0 mm 0.000 mm 3.9 km/h
00:50 20.9 °C 12.8 °C 20.9 °C 60% 996.7 hPa 0 W/m² 0.0 mm 0.000 mm 0.5 km/h
00:55 20.8 °C 12.5 °C 20.8 °C 59% 996.7 hPa 0 W/m² 0.0 mm 0.000 mm 0.0 km/h
01:00 20.6 °C 12.6 °C 20.6 °C 60% 996.9 hPa 0 W/m² 0.0 mm 0.051 mm 0.0 km/h
01:05 20.4 °C 12.6 °C 20.4 °C 61% 997.0 hPa 0 W/m² 0.0 mm 0.000 mm 0.0 km/h
01:10 20.3 °C 12.8 °C 20.3 °C 62% 996.9 hPa 0 W/m² 0.0 mm 0.000 mm 0.0 km/h
01:15 20.2 °C 12.4 °C 20.2 °C 61% 996.7 hPa 0 W/m² 0.0 mm 0.000 mm 0.0 km/h
01:20 20.0 °C 12.7 °C 20.0 °C 63% 996.8 hPa 0 W/m² 0.0 mm 0.000 mm 2.0 km/h
01:25 19.9 °C 12.9 °C 19.9 °C 64% 997.0 hPa 0 W/m² 0.0 mm 0.000 mm 5.8 km/h
01:30 20.0 °C 13.0 °C 20.0 °C 64% 996.9 hPa 0 W/m² 0.0 mm 0.000 mm 2.4 km/h
01:35 20.0 °C 13.2 °C 20.0 °C 65% 996.7 hPa 0 W/m² 0.0 mm 0.000 mm 4.6 km/h
01:40 20.1 °C 13.3 °C 19.7 °C 65% 996.6 hPa 0 W/m² 0.0 mm 0.000 mm 7.4 km/h
01:45 20.1 °C 13.1 °C 19.0 °C 64% 996.6 hPa 0 W/m² 0.0 mm 0.000 mm 9.4 km/h
01:50 20.1 °C 13.3 °C 20.1 °C 65% 996.6 hPa 0 W/m² 0.0 mm 0.000 mm 6.1 km/h
01:55 20.1 °C 13.3 °C 20.1 °C 65% 996.4 hPa 0 W/m² 0.0 mm 0.000 mm 1.4 km/h
02:00 20.0 °C 13.2 °C 20.0 °C 65% 996.6 hPa 0 W/m² 0.0 mm 0.051 mm 4.4 km/h
02:05 19.9 °C 13.4 °C 19.9 °C 66% 996.5 hPa 0 W/m² 0.0 mm 0.000 mm 5.4 km/h
02:10 19.9 °C 13.4 °C 19.9 °C 66% 996.5 hPa 0 W/m² 0.0 mm 0.000 mm 6.0 km/h
02:15 19.8 °C 13.3 °C 19.6 °C 66% 996.6 hPa 0 W/m² 0.0 mm 0.000 mm 6.8 km/h
02:20 19.7 °C 13.2 °C 19.6 °C 66% 996.8 hPa 0 W/m² 0.0 mm 0.000 mm 6.7 km/h
02:25 19.7 °C 13.4 °C 19.2 °C 67% 996.7 hPa 0 W/m² 0.0 mm 0.000 mm 7.6 km/h
02:30 19.7 °C 13.4 °C 19.4 °C 67% 996.6 hPa 0 W/m² 0.0 mm 0.000 mm 7.2 km/h
02:35 19.7 °C 13.4 °C 19.4 °C 67% 996.5 hPa 0 W/m² 0.0 mm 0.000 mm 7.1 km/h
02:40 19.7 °C 13.4 °C 19.7 °C 67% 996.8 hPa 0 W/m² 0.0 mm 0.000 mm 3.7 km/h
02:45 19.7 °C 13.6 °C 19.7 °C 68% 996.7 hPa 0 W/m² 0.0 mm 0.000 mm 5.8 km/h
02:50 19.6 °C 13.5 °C 19.6 °C 68% 996.9 hPa 0 W/m² 0.0 mm 0.000 mm 4.5 km/h
02:55 19.5 °C 13.4 °C 19.5 °C 68% 996.9 hPa 0 W/m² 0.0 mm 0.000 mm 3.2 km/h
03:00 19.4 °C 13.6 °C 19.4 °C 69% 997.0 hPa 0 W/m² 0.0 mm 0.050 mm 5.4 km/h
03:05 19.4 °C 13.6 °C 19.4 °C 69% 997.0 hPa 0 W/m² 0.0 mm 0.000 mm 5.9 km/h
03:10 19.4 °C 13.6 °C 19.4 °C 69% 996.8 hPa 0 W/m² 0.0 mm 0.000 mm 5.6 km/h
03:15 19.4 °C 13.8 °C 19.4 °C 70% 996.9 hPa 0 W/m² 0.0 mm 0.000 mm 5.2 km/h
03:20 19.4 °C 13.8 °C 18.6 °C 70% 996.7 hPa 0 W/m² 0.0 mm 0.000 mm 8.4 km/h
03:25 19.5 °C 13.9 °C 19.2 °C 70% 996.7 hPa 0 W/m² 0.0 mm 0.000 mm 7.1 km/h
03:30 19.5 °C 13.9 °C 19.5 °C 70% 996.7 hPa 0 W/m² 0.0 mm 0.000 mm 4.9 km/h
03:35 19.5 °C 13.9 °C 19.5 °C 70% 996.6 hPa 0 W/m² 0.0 mm 0.000 mm 1.0 km/h
03:40 19.4 °C 13.8 °C 19.4 °C 70% 996.4 hPa 0 W/m² 0.0 mm 0.000 mm 0.0 km/h
03:45 19.4 °C 13.8 °C 19.4 °C 70% 996.3 hPa 0 W/m² 0.0 mm 0.000 mm 0.1 km/h
03:50 19.3 °C 13.9 °C 19.3 °C 71% 996.2 hPa 0 W/m² 0.0 mm 0.000 mm 0.4 km/h
03:55 19.2 °C 13.8 °C 19.2 °C 71% 996.3 hPa 0 W/m² 0.0 mm 0.000 mm 0.7 km/h
04:00 19.2 °C 14.0 °C 19.2 °C 72% 996.3 hPa 0 W/m² 0.0 mm 0.000 mm 1.1 km/h
04:05 19.2 °C 14.0 °C 19.2 °C 72% 996.3 hPa 0 W/m² 0.0 mm 0.026 mm 3.6 km/h
04:10 19.2 °C 14.0 °C 19.2 °C 72% 996.2 hPa 0 W/m² 0.0 mm 0.000 mm 1.3 km/h
04:15 19.2 °C 14.0 °C 19.1 °C 72% 996.3 hPa 0 W/m² 0.0 mm 0.000 mm 6.7 km/h
04:20 19.2 °C 14.0 °C 17.9 °C 72% 996.1 hPa 0 W/m² 0.0 mm 0.000 mm 9.5 km/h
04:25 19.2 °C 14.0 °C 18.4 °C 72% 996.0 hPa 0 W/m² 0.0 mm 0.000 mm 8.2 km/h
04:30 19.1 °C 14.1 °C 18.0 °C 73% 996.1 hPa 0 W/m² 0.0 mm 0.000 mm 9.1 km/h
04:35 19.0 °C 14.0 °C 19.0 °C 73% 996.0 hPa 0 W/m² 0.0 mm 0.000 mm 5.9 km/h
04:40 18.9 °C 13.9 °C 18.9 °C 73% 996.1 hPa 0 W/m² 0.0 mm 0.000 mm 3.4 km/h
04:45 18.9 °C 14.2 °C 18.9 °C 74% 996.2 hPa 0 W/m² 0.0 mm 0.000 mm 3.8 km/h
04:50 18.9 °C 14.2 °C 18.9 °C 74% 996.3 hPa 0 W/m² 0.0 mm 0.000 mm 3.3 km/h
04:55 18.8 °C 14.1 °C 18.8 °C 74% 996.1 hPa 0 W/m² 0.0 mm 0.000 mm 5.8 km/h
05:00 18.8 °C 14.3 °C 18.8 °C 75% 996.1 hPa 0 W/m² 0.0 mm 0.051 mm 4.5 km/h
05:05 18.8 °C 14.3 °C 18.8 °C 75% 996.0 hPa 0 W/m² 0.0 mm 0.000 mm 4.3 km/h
05:10 18.7 °C 14.2 °C 18.7 °C 75% 996.1 hPa 0 W/m² 0.0 mm 0.000 mm 4.4 km/h
05:15 18.7 °C 14.2 °C 18.7 °C 75% 995.9 hPa 0 W/m² 0.0 mm 0.000 mm 4.8 km/h
05:20 18.6 °C 14.3 °C 18.6 °C 76% 996.0 hPa 0 W/m² 0.0 mm 0.000 mm 3.8 km/h
05:25 18.6 °C 14.3 °C 18.6 °C 76% 996.0 hPa 0 W/m² 0.0 mm 0.000 mm 2.3 km/h
05:30 18.6 °C 14.3 °C 18.6 °C 76% 995.9 hPa 0 W/m² 0.0 mm 0.000 mm 0.6 km/h
05:35 18.5 °C 14.2 °C 18.5 °C 76% 996.1 hPa 1 W/m² 0.0 mm 0.000 mm 1.2 km/h
05:40 18.4 °C 14.3 °C 18.4 °C 77% 996.0 hPa 5 W/m² 0.0 mm 0.000 mm 0.4 km/h
05:45 18.4 °C 14.1 °C 18.4 °C 76% 995.7 hPa 7 W/m² 0.0 mm 0.000 mm 0.3 km/h
05:50 18.4 °C 14.3 °C 18.4 °C 77% 995.9 hPa 9 W/m² 0.0 mm 0.000 mm 0.0 km/h
05:55 18.3 °C 14.2 °C 18.3 °C 77% 995.9 hPa 12 W/m² 0.0 mm 0.000 mm 0.0 km/h
06:00 18.3 °C 14.2 °C 18.3 °C 77% 995.9 hPa 15 W/m² 0.0 mm 0.025 mm 0.1 km/h
06:05 18.3 °C 14.4 °C 18.3 °C 78% 995.8 hPa 17 W/m² 0.0 mm 0.000 mm 3.1 km/h
06:10 18.3 °C 14.4 °C 18.3 °C 78% 995.8 hPa 20 W/m² 0.0 mm 0.000 mm 1.9 km/h
06:15 18.3 °C 14.4 °C 18.3 °C 78% 995.9 hPa 22 W/m² 0.0 mm 0.000 mm 2.9 km/h
06:20 18.3 °C 14.4 °C 18.3 °C 78% 995.9 hPa 25 W/m² 0.0 mm 0.000 mm 0.2 km/h
06:25 18.3 °C 14.4 °C 18.3 °C 78% 996.3 hPa 27 W/m² 0.0 mm 0.000 mm 0.0 km/h
06:30 18.4 °C 14.5 °C 18.4 °C 78% 996.1 hPa 30 W/m² 0.0 mm 0.000 mm 0.0 km/h
06:35 18.4 °C 14.5 °C 18.4 °C 78% 996.0 hPa 33 W/m² 0.0 mm 0.000 mm 0.1 km/h
06:40 18.4 °C 14.5 °C 18.4 °C 78% 996.0 hPa 38 W/m² 0.0 mm 0.000 mm 1.4 km/h
06:45 18.6 °C 14.7 °C 18.6 °C 78% 996.1 hPa 44 W/m² 0.0 mm 0.000 mm 0.8 km/h
06:50 18.6 °C 14.7 °C 18.6 °C 78% 996.1 hPa 51 W/m² 0.0 mm 0.000 mm 4.2 km/h
06:55 18.7 °C 14.8 °C 18.7 °C 78% 996.2 hPa 52 W/m² 0.0 mm 0.000 mm 4.7 km/h
07:00 18.8 °C 14.9 °C 18.8 °C 78% 996.3 hPa 51 W/m² 0.0 mm 0.025 mm 3.4 km/h
07:05 18.8 °C 14.9 °C 18.8 °C 78% 996.4 hPa 56 W/m² 0.0 mm 0.000 mm 2.8 km/h
07:10 18.9 °C 15.0 °C 18.9 °C 78% 996.6 hPa 62 W/m² 0.0 mm 0.000 mm 3.2 km/h
07:15 18.9 °C 15.0 °C 18.9 °C 78% 996.5 hPa 64 W/m² 0.0 mm 0.000 mm 2.8 km/h
07:20 19.1 °C 15.2 °C 19.1 °C 78% 996.4 hPa 65 W/m² 0.0 mm 0.000 mm 1.9 km/h
07:25 19.1 °C 15.2 °C 19.1 °C 78% 996.7 hPa 62 W/m² 0.0 mm 0.000 mm 4.3 km/h
07:30 19.2 °C 15.3 °C 18.8 °C 78% 996.6 hPa 60 W/m² 0.0 mm 0.000 mm 7.4 km/h
07:35 19.2 °C 15.3 °C 19.2 °C 78% 996.8 hPa 62 W/m² 0.0 mm 0.000 mm 6.4 km/h
07:40 19.3 °C 15.4 °C 18.7 °C 78% 996.8 hPa 63 W/m² 0.0 mm 0.000 mm 7.9 km/h
07:45 19.3 °C 15.4 °C 19.3 °C 78% 996.8 hPa 65 W/m² 0.0 mm 0.000 mm 4.0 km/h
07:50 19.3 °C 15.4 °C 19.2 °C 78% 996.8 hPa 66 W/m² 0.0 mm 0.000 mm 6.7 km/h
07:55 19.3 °C 15.4 °C 19.3 °C 78% 996.8 hPa 69 W/m² 0.0 mm 0.000 mm 5.5 km/h
08:00 19.3 °C 15.4 °C 19.3 °C 78% 996.7 hPa 69 W/m² 0.0 mm 0.051 mm 5.8 km/h
08:05 19.3 °C 15.4 °C 18.6 °C 78% 996.9 hPa 65 W/m² 0.0 mm 0.000 mm 8.0 km/h
08:10 19.3 °C 15.4 °C 18.6 °C 78% 996.9 hPa 62 W/m² 0.0 mm 0.000 mm 8.1 km/h
08:15 19.3 °C 15.4 °C 18.9 °C 78% 996.6 hPa 59 W/m² 0.0 mm 0.000 mm 7.4 km/h
08:20 19.4 °C 15.5 °C 19.4 °C 78% 996.9 hPa 61 W/m² 0.0 mm 0.000 mm 5.4 km/h
08:25 19.4 °C 15.5 °C 19.3 °C 78% 996.8 hPa 65 W/m² 0.0 mm 0.000 mm 6.6 km/h
08:30 19.4 °C 15.5 °C 19.4 °C 78% 996.6 hPa 66 W/m² 0.0 mm 0.000 mm 5.8 km/h
08:35 19.4 °C 15.7 °C 19.4 °C 79% 996.6 hPa 69 W/m² 0.0 mm 0.000 mm 2.9 km/h
08:40 19.3 °C 15.6 °C 19.3 °C 79% 996.6 hPa 70 W/m² 0.0 mm 0.000 mm 6.0 km/h
08:45 19.3 °C 15.6 °C 19.3 °C 79% 996.6 hPa 76 W/m² 0.0 mm 0.000 mm 6.0 km/h
08:50 19.3 °C 15.6 °C 19.3 °C 79% 996.6 hPa 86 W/m² 0.0 mm 0.000 mm 6.2 km/h
08:55 19.3 °C 15.8 °C 19.3 °C 80% 996.6 hPa 98 W/m² 0.0 mm 0.000 mm 4.9 km/h
09:00 19.3 °C 15.8 °C 19.3 °C 80% 996.6 hPa 108 W/m² 0.0 mm 0.051 mm 3.2 km/h
09:05 19.3 °C 15.8 °C 19.3 °C 80% 996.6 hPa 114 W/m² 0.0 mm 0.000 mm 6.1 km/h
09:10 19.4 °C 15.9 °C 19.4 °C 80% 996.8 hPa 122 W/m² 0.0 mm 0.000 mm 6.4 km/h
09:15 19.4 °C 16.1 °C 19.4 °C 81% 997.0 hPa 133 W/m² 0.0 mm 0.000 mm 4.2 km/h
09:20 19.4 °C 15.9 °C 19.4 °C 80% 996.8 hPa 147 W/m² 0.0 mm 0.000 mm 6.4 km/h
09:25 19.5 °C 16.0 °C 19.5 °C 80% 996.7 hPa 166 W/m² 0.0 mm 0.000 mm 3.7 km/h
09:30 19.6 °C 16.1 °C 19.6 °C 80% 996.8 hPa 180 W/m² 0.0 mm 0.000 mm 6.2 km/h
09:35 19.7 °C 16.1 °C 19.7 °C 80% 996.7 hPa 194 W/m² 0.0 mm 0.000 mm 1.6 km/h
09:40 19.8 °C 16.2 °C 19.2 °C 80% 996.6 hPa 207 W/m² 0.0 mm 0.000 mm 7.9 km/h
09:45 19.8 °C 16.2 °C 19.8 °C 80% 996.7 hPa 211 W/m² 0.0 mm 0.000 mm 5.3 km/h
09:50 19.9 °C 16.3 °C 19.2 °C 80% 996.8 hPa 213 W/m² 0.0 mm 0.000 mm 8.1 km/h
09:55 20.0 °C 16.4 °C 18.9 °C 80% 997.0 hPa 215 W/m² 0.0 mm 0.000 mm 9.3 km/h
10:00 20.1 °C 16.3 °C 19.5 °C 79% 996.8 hPa 223 W/m² 0.0 mm 0.127 mm 7.8 km/h
10:05 20.1 °C 16.3 °C 19.1 °C 79% 997.0 hPa 240 W/m² 0.0 mm 0.000 mm 9.0 km/h
10:10 20.2 °C 16.4 °C 19.2 °C 79% 997.0 hPa 251 W/m² 0.0 mm 0.000 mm 8.9 km/h
10:15 20.2 °C 16.4 °C 19.0 °C 79% 996.8 hPa 250 W/m² 0.0 mm 0.000 mm 9.7 km/h
10:20 20.3 °C 16.5 °C 19.8 °C 79% 997.0 hPa 260 W/m² 0.0 mm 0.000 mm 7.6 km/h
10:25 20.4 °C 16.6 °C 19.9 °C 79% 996.9 hPa 281 W/m² 0.0 mm 0.000 mm 7.6 km/h
10:30 20.5 °C 16.5 °C 20.5 °C 78% 997.0 hPa 291 W/m² 0.0 mm 0.000 mm 6.5 km/h
10:35 20.6 °C 16.6 °C 19.7 °C 78% 997.1 hPa 279 W/m² 0.0 mm 0.000 mm 8.8 km/h
10:40 20.6 °C 16.4 °C 20.6 °C 77% 997.0 hPa 267 W/m² 0.0 mm 0.000 mm 6.2 km/h
10:45 20.7 °C 16.5 °C 19.8 °C 77% 997.1 hPa 242 W/m² 0.0 mm 0.000 mm 8.9 km/h
10:50 20.6 °C 16.4 °C 20.0 °C 77% 997.1 hPa 215 W/m² 0.0 mm 0.000 mm 8.0 km/h
10:55 20.7 °C 16.5 °C 20.7 °C 77% 997.4 hPa 198 W/m² 0.0 mm 0.000 mm 3.4 km/h
11:00 20.6 °C 16.4 °C 20.2 °C 77% 997.2 hPa 180 W/m² 0.0 mm 0.178 mm 7.4 km/h
11:05 20.6 °C 16.4 °C 20.6 °C 77% 997.3 hPa 168 W/m² 0.0 mm 0.000 mm 3.4 km/h
11:10 20.6 °C 16.4 °C 20.6 °C 77% 997.6 hPa 170 W/m² 0.0 mm 0.000 mm 5.6 km/h
11:15 20.6 °C 16.4 °C 20.6 °C 77% 997.5 hPa 188 W/m² 0.0 mm 0.000 mm 4.1 km/h
11:20 20.6 °C 16.6 °C 19.5 °C 78% 997.7 hPa 210 W/m² 0.0 mm 0.000 mm 9.3 km/h
11:25 20.6 °C 16.8 °C 20.6 °C 79% 997.8 hPa 227 W/m² 0.0 mm 0.000 mm 5.8 km/h
11:30 20.5 °C 16.9 °C 20.5 °C 80% 997.6 hPa 240 W/m² 0.0 mm 0.000 mm 5.6 km/h
11:35 20.4 °C 17.0 °C 20.4 °C 81% 997.9 hPa 235 W/m² 0.0 mm 0.000 mm 1.0 km/h
11:40 20.4 °C 17.4 °C 20.4 °C 83% 997.7 hPa 239 W/m² 0.0 mm 0.000 mm 2.2 km/h
11:45 20.3 °C 17.3 °C 20.3 °C 83% 997.7 hPa 253 W/m² 0.0 mm 0.000 mm 2.2 km/h
11:50 20.3 °C 17.3 °C 20.3 °C 83% 997.7 hPa 264 W/m² 0.0 mm 0.000 mm 3.5 km/h
11:55 20.3 °C 17.3 °C 20.3 °C 83% 997.8 hPa 273 W/m² 0.0 mm 0.000 mm 6.3 km/h
12:00 20.3 °C 17.3 °C 20.3 °C 83% 997.6 hPa 271 W/m² 0.0 mm 0.152 mm 2.9 km/h
12:05 20.3 °C 17.3 °C 20.3 °C 83% 997.8 hPa 271 W/m² 0.0 mm 0.000 mm 6.1 km/h
12:10 20.3 °C 17.5 °C 20.3 °C 84% 997.6 hPa 269 W/m² 0.0 mm 0.000 mm 3.4 km/h
12:15 20.3 °C 17.5 °C 20.3 °C 84% 997.9 hPa 279 W/m² 0.0 mm 0.000 mm 4.2 km/h
12:20 20.2 °C 17.2 °C 19.7 °C 83% 998.2 hPa 304 W/m² 0.0 mm 0.000 mm 7.6 km/h
12:25 20.2 °C 17.2 °C 19.9 °C 83% 998.2 hPa 313 W/m² 0.0 mm 0.000 mm 7.1 km/h
12:30 20.3 °C 17.1 °C 20.3 °C 82% 998.1 hPa 303 W/m² 0.0 mm 0.000 mm 6.2 km/h
12:35 20.3 °C 17.1 °C 20.2 °C 82% 998.4 hPa 281 W/m² 0.0 mm 0.000 mm 6.7 km/h
12:40 20.4 °C 17.2 °C 20.4 °C 82% 998.3 hPa 239 W/m² 0.0 mm 0.000 mm 5.1 km/h
12:45 20.4 °C 17.0 °C 20.4 °C 81% 998.4 hPa 213 W/m² 0.0 mm 0.000 mm 6.1 km/h
12:50 20.4 °C 17.0 °C 20.4 °C 81% 998.5 hPa 197 W/m² 0.0 mm 0.000 mm 5.7 km/h
12:55 20.4 °C 17.0 °C 20.4 °C 81% 998.3 hPa 181 W/m² 0.0 mm 0.000 mm 3.6 km/h
13:00 20.5 °C 17.1 °C 20.2 °C 81% 998.5 hPa 173 W/m² 0.0 mm 0.153 mm 7.2 km/h
13:05 20.4 °C 17.0 °C 20.4 °C 81% 998.5 hPa 178 W/m² 0.0 mm 0.000 mm 5.0 km/h
13:10 20.4 °C 17.0 °C 20.4 °C 81% 998.4 hPa 185 W/m² 0.0 mm 0.000 mm 5.8 km/h
13:15 20.3 °C 17.1 °C 20.3 °C 82% 998.3 hPa 190 W/m² 0.0 mm 0.000 mm 3.5 km/h
13:20 20.3 °C 17.1 °C 20.3 °C 82% 998.5 hPa 190 W/m² 0.0 mm 0.000 mm 1.2 km/h
13:25 20.3 °C 17.1 °C 20.3 °C 82% 998.5 hPa 189 W/m² 0.0 mm 0.000 mm 5.4 km/h
13:30 20.4 °C 17.4 °C 20.4 °C 83% 998.5 hPa 189 W/m² 0.0 mm 0.000 mm 2.1 km/h
13:35 20.3 °C 17.3 °C 20.3 °C 83% 998.7 hPa 191 W/m² 0.0 mm 0.000 mm 3.2 km/h
13:40 20.3 °C 17.3 °C 20.3 °C 83% 998.7 hPa 188 W/m² 0.0 mm 0.000 mm 1.8 km/h
13:45 20.3 °C 17.5 °C 20.3 °C 84% 998.8 hPa 182 W/m² 0.0 mm 0.000 mm 1.7 km/h
13:50 20.2 °C 17.4 °C 20.2 °C 84% 998.7 hPa 180 W/m² 0.0 mm 0.000 mm 1.7 km/h
13:55 20.3 °C 17.7 °C 20.3 °C 85% 998.8 hPa 181 W/m² 0.0 mm 0.000 mm 0.1 km/h
14:00 20.3 °C 17.7 °C 20.3 °C 85% 998.7 hPa 186 W/m² 0.0 mm 0.127 mm 0.0 km/h
14:05 20.2 °C 17.6 °C 20.2 °C 85% 998.6 hPa 190 W/m² 0.3 mm 0.000 mm 0.1 km/h
14:10 20.2 °C 17.6 °C 20.2 °C 85% 998.6 hPa 193 W/m² 0.0 mm 0.000 mm 0.2 km/h
14:15 20.2 °C 17.8 °C 20.2 °C 86% 998.5 hPa 202 W/m² 0.0 mm 0.000 mm 0.0 km/h
14:20 20.2 °C 17.8 °C 20.2 °C 86% 998.2 hPa 219 W/m² 0.0 mm 0.000 mm 0.9 km/h
14:25 20.2 °C 17.8 °C 20.2 °C 86% 998.2 hPa 239 W/m² 0.0 mm 0.000 mm 0.0 km/h
14:30 20.2 °C 17.8 °C 20.2 °C 86% 998.2 hPa 258 W/m² 0.0 mm 0.000 mm 0.5 km/h
14:35 20.1 °C 17.7 °C 20.1 °C 86% 998.1 hPa 270 W/m² 0.0 mm 0.000 mm 2.7 km/h
14:40 20.2 °C 17.8 °C 20.2 °C 86% 998.0 hPa 270 W/m² 0.0 mm 0.000 mm 1.5 km/h
14:45 20.2 °C 17.8 °C 20.2 °C 86% 998.0 hPa 259 W/m² 0.0 mm 0.000 mm 0.0 km/h
14:50 20.3 °C 18.1 °C 20.3 °C 87% 998.1 hPa 251 W/m² 0.0 mm 0.000 mm 0.0 km/h
14:55 20.3 °C 18.1 °C 20.3 °C 87% 997.9 hPa 245 W/m² 0.0 mm 0.000 mm 0.0 km/h
15:00 20.3 °C 18.1 °C 20.3 °C 87% 997.8 hPa 227 W/m² 0.0 mm 0.127 mm 0.8 km/h
15:05 20.4 °C 18.2 °C 20.4 °C 87% 998.0 hPa 215 W/m² 0.0 mm 0.000 mm 0.1 km/h
15:10 20.5 °C 18.3 °C 20.5 °C 87% 998.0 hPa 224 W/m² 0.0 mm 0.000 mm 2.1 km/h
15:15 20.4 °C 18.0 °C 20.4 °C 86% 997.8 hPa 226 W/m² 0.0 mm 0.000 mm 1.8 km/h
15:20 20.4 °C 18.0 °C 20.4 °C 86% 998.2 hPa 209 W/m² 0.0 mm 0.000 mm 3.2 km/h
15:25 20.4 °C 18.0 °C 20.4 °C 86% 998.2 hPa 192 W/m² 0.0 mm 0.000 mm 2.2 km/h
15:30 20.4 °C 18.0 °C 20.4 °C 86% 998.4 hPa 195 W/m² 0.0 mm 0.000 mm 0.8 km/h
15:35 20.4 °C 18.0 °C 20.4 °C 86% 998.3 hPa 209 W/m² 0.0 mm 0.000 mm 3.7 km/h
15:40 20.3 °C 17.7 °C 20.3 °C 85% 998.4 hPa 217 W/m² 0.0 mm 0.000 mm 2.1 km/h
15:45 20.3 °C 17.9 °C 20.3 °C 86% 998.2 hPa 219 W/m² 0.0 mm 0.000 mm 0.6 km/h
15:50 20.4 °C 18.0 °C 20.4 °C 86% 998.2 hPa 228 W/m² 0.0 mm 0.000 mm 0.0 km/h
15:55 20.4 °C 17.8 °C 20.4 °C 85% 998.2 hPa 237 W/m² 0.0 mm 0.000 mm 0.4 km/h
16:00 20.6 °C 18.0 °C 20.6 °C 85% 998.3 hPa 262 W/m² 0.0 mm 0.127 mm 0.0 km/h
16:05 20.6 °C 18.0 °C 20.6 °C 85% 998.0 hPa 263 W/m² 0.3 mm 0.000 mm 0.0 km/h
16:10 20.6 °C 18.0 °C 20.6 °C 85% 997.8 hPa 242 W/m² 0.0 mm 0.000 mm 0.0 km/h
16:15 20.7 °C 18.1 °C 20.7 °C 85% 997.8 hPa 222 W/m² 0.0 mm 0.000 mm 0.1 km/h
16:20 20.6 °C 17.8 °C 20.6 °C 84% 998.1 hPa 203 W/m² 0.0 mm 0.000 mm 0.0 km/h
16:25 20.6 °C 17.8 °C 20.6 °C 84% 997.9 hPa 176 W/m² 0.0 mm 0.000 mm 0.0 km/h
16:30 20.6 °C 18.0 °C 20.6 °C 85% 997.9 hPa 155 W/m² 0.0 mm 0.000 mm 1.7 km/h
16:35 20.5 °C 18.1 °C 20.5 °C 86% 998.3 hPa 169 W/m² 0.0 mm 0.000 mm 1.7 km/h
16:40 20.4 °C 18.0 °C 20.4 °C 86% 998.2 hPa 198 W/m² 0.3 mm 0.000 mm 3.4 km/h
16:45 20.4 °C 18.2 °C 20.2 °C 87% 997.9 hPa 216 W/m² 0.0 mm 0.000 mm 7.0 km/h
16:50 20.4 °C 18.3 °C 19.7 °C 88% 998.1 hPa 203 W/m² 0.0 mm 0.000 mm 8.1 km/h
16:55 20.4 °C 18.3 °C 19.1 °C 88% 998.0 hPa 214 W/m² 0.0 mm 0.000 mm 9.9 km/h
17:00 20.4 °C 18.3 °C 20.4 °C 88% 997.8 hPa 239 W/m² 0.0 mm 0.127 mm 6.0 km/h
17:05 20.4 °C 18.3 °C 20.4 °C 88% 997.8 hPa 258 W/m² 0.0 mm 0.000 mm 0.4 km/h
17:10 20.4 °C 18.3 °C 20.4 °C 88% 998.0 hPa 268 W/m² 0.3 mm 0.000 mm 0.0 km/h
17:15 20.3 °C 18.2 °C 20.3 °C 88% 998.2 hPa 282 W/m² 0.0 mm 0.000 mm 0.0 km/h
17:20 20.2 °C 17.8 °C 20.2 °C 86% 998.2 hPa 296 W/m² 0.0 mm 0.000 mm 0.0 km/h
17:25 20.2 °C 17.8 °C 20.2 °C 86% 998.1 hPa 303 W/m² 0.0 mm 0.000 mm 0.0 km/h
17:30 20.3 °C 17.9 °C 20.3 °C 86% 998.0 hPa 300 W/m² 0.0 mm 0.000 mm 0.0 km/h
17:35 20.4 °C 18.0 °C 20.4 °C 86% 998.2 hPa 268 W/m² 0.0 mm 0.000 mm 0.0 km/h
17:40 20.6 °C 18.2 °C 20.6 °C 86% 998.2 hPa 264 W/m² 0.0 mm 0.000 mm 0.0 km/h
17:45 20.6 °C 18.0 °C 20.6 °C 85% 998.2 hPa 253 W/m² 0.0 mm 0.000 mm 0.0 km/h
17:50 20.7 °C 18.3 °C 20.7 °C 86% 998.3 hPa 209 W/m² 0.0 mm 0.000 mm 0.0 km/h
17:55 20.7 °C 18.1 °C 20.7 °C 85% 998.3 hPa 197 W/m² 0.0 mm 0.000 mm 0.0 km/h
18:00 20.7 °C 18.1 °C 20.7 °C 85% 998.5 hPa 211 W/m² 0.0 mm 0.152 mm 0.0 km/h
18:05 20.7 °C 18.1 °C 20.7 °C 85% 998.2 hPa 203 W/m² 0.0 mm 0.000 mm 0.0 km/h
18:10 20.7 °C 18.1 °C 20.7 °C 85% 998.3 hPa 182 W/m² 0.0 mm 0.000 mm 0.0 km/h
18:15 20.7 °C 17.9 °C 20.7 °C 84% 998.1 hPa 165 W/m² 0.0 mm 0.000 mm 0.0 km/h
18:20 20.7 °C 17.9 °C 20.7 °C 84% 998.6 hPa 157 W/m² 0.0 mm 0.000 mm 0.0 km/h
18:25 20.7 °C 17.7 °C 20.7 °C 83% 998.5 hPa 157 W/m² 0.0 mm 0.000 mm 0.0 km/h
18:30 20.7 °C 17.5 °C 20.7 °C 82% 998.6 hPa 163 W/m² 0.0 mm 0.000 mm 0.0 km/h
18:35 20.8 °C 17.6 °C 20.8 °C 82% 998.7 hPa 162 W/m² 0.0 mm 0.000 mm 0.0 km/h
18:40 20.8 °C 17.8 °C 20.8 °C 83% 998.5 hPa 149 W/m² 0.0 mm 0.000 mm 0.0 km/h
18:45 20.8 °C 17.6 °C 20.8 °C 82% 998.4 hPa 127 W/m² 0.0 mm 0.000 mm 0.0 km/h
18:50 20.7 °C 17.3 °C 20.7 °C 81% 998.6 hPa 106 W/m² 0.0 mm 0.000 mm 0.0 km/h
18:55 20.6 °C 17.0 °C 20.6 °C 80% 998.3 hPa 94 W/m² 0.0 mm 0.000 mm 0.0 km/h
19:00 20.6 °C 17.2 °C 20.6 °C 81% 998.3 hPa 94 W/m² 0.0 mm 0.076 mm 0.0 km/h
19:05 20.6 °C 17.4 °C 20.6 °C 82% 998.4 hPa 108 W/m² 0.0 mm 0.000 mm 0.0 km/h
19:10 20.6 °C 17.4 °C 20.6 °C 82% 998.2 hPa 144 W/m² 0.0 mm 0.000 mm 0.0 km/h
19:15 20.6 °C 17.4 °C 20.6 °C 82% 998.3 hPa 157 W/m² 0.0 mm 0.000 mm 0.0 km/h
19:20 20.6 °C 17.4 °C 20.6 °C 82% 998.5 hPa 128 W/m² 0.0 mm 0.000 mm 0.1 km/h
19:25 20.7 °C 17.5 °C 20.7 °C 82% 998.5 hPa 106 W/m² 0.0 mm 0.000 mm 0.0 km/h
19:30 20.7 °C 17.5 °C 20.7 °C 82% 998.6 hPa 100 W/m² 0.0 mm 0.000 mm 0.0 km/h
19:35 20.7 °C 17.5 °C 20.7 °C 82% 998.4 hPa 100 W/m² 0.0 mm 0.000 mm 0.0 km/h
19:40 20.7 °C 17.5 °C 20.7 °C 82% 998.5 hPa 98 W/m² 0.0 mm 0.000 mm 0.0 km/h
19:45 20.7 °C 17.5 °C 20.7 °C 82% 998.5 hPa 82 W/m² 0.0 mm 0.000 mm 0.0 km/h
19:50 20.7 °C 17.5 °C 20.7 °C 82% 998.3 hPa 71 W/m² 0.0 mm 0.000 mm 0.0 km/h
19:55 20.6 °C 17.4 °C 20.6 °C 82% 998.4 hPa 61 W/m² 0.0 mm 0.000 mm 0.0 km/h
20:00 20.6 °C 17.4 °C 20.6 °C 82% 998.4 hPa 59 W/m² 0.0 mm 0.051 mm 0.0 km/h
20:05 20.6 °C 17.4 °C 20.6 °C 82% 998.5 hPa 56 W/m² 0.0 mm 0.000 mm 0.0 km/h
20:10 20.5 °C 17.5 °C 20.5 °C 83% 998.5 hPa 46 W/m² 0.0 mm 0.000 mm 0.0 km/h
20:15 20.5 °C 17.5 °C 20.5 °C 83% 998.5 hPa 34 W/m² 0.0 mm 0.000 mm 0.0 km/h
20:20 20.4 °C 17.4 °C 20.4 °C 83% 998.6 hPa 27 W/m² 0.0 mm 0.000 mm 0.0 km/h
20:25 20.3 °C 17.3 °C 20.3 °C 83% 998.6 hPa 26 W/m² 0.0 mm 0.000 mm 0.0 km/h
20:30 20.3 °C 17.5 °C 20.3 °C 84% 998.8 hPa 21 W/m² 0.0 mm 0.000 mm 0.0 km/h
20:35 20.3 °C 17.5 °C 20.3 °C 84% 998.8 hPa 17 W/m² 0.0 mm 0.000 mm 0.0 km/h
20:40 20.2 °C 17.4 °C 20.2 °C 84% 998.7 hPa 13 W/m² 0.0 mm 0.000 mm 0.0 km/h
20:45 20.2 °C 17.4 °C 20.2 °C 84% 998.8 hPa 11 W/m² 0.0 mm 0.000 mm 0.0 km/h
20:50 20.2 °C 17.4 °C 20.2 °C 84% 998.8 hPa 8 W/m² 0.0 mm 0.000 mm 0.0 km/h
20:55 20.1 °C 17.3 °C 20.1 °C 84% 999.0 hPa 6 W/m² 0.0 mm 0.000 mm 0.0 km/h
21:00 19.9 °C 17.1 °C 19.9 °C 84% 999.0 hPa 3 W/m² 0.0 mm 0.025 mm 0.0 km/h
21:05 19.8 °C 17.0 °C 19.8 °C 84% 999.0 hPa 0 W/m² 0.0 mm 0.000 mm 0.0 km/h
21:10 19.8 °C 17.2 °C 19.8 °C 85% 999.0 hPa 0 W/m² 0.0 mm 0.000 mm 0.0 km/h
21:15 19.7 °C 17.1 °C 19.7 °C 85% 998.9 hPa 0 W/m² 0.0 mm 0.000 mm 0.0 km/h
21:20 19.7 °C 17.3 °C 19.7 °C 86% 999.0 hPa 0 W/m² 0.0 mm 0.000 mm 0.0 km/h
21:25 19.7 °C 17.3 °C 19.7 °C 86% 999.1 hPa 0 W/m² 0.0 mm 0.000 mm 0.0 km/h
21:30 19.6 °C 17.4 °C 19.6 °C 87% 999.2 hPa 0 W/m² 0.0 mm 0.000 mm 0.0 km/h
21:35 19.5 °C 17.3 °C 19.5 °C 87% 999.2 hPa 0 W/m² 0.0 mm 0.000 mm 0.0 km/h
21:40 19.4 °C 17.2 °C 19.4 °C 87% 999.2 hPa 0 W/m² 0.0 mm 0.000 mm 0.0 km/h
21:45 19.4 °C 17.2 °C 19.4 °C 87% 999.4 hPa 0 W/m² 0.0 mm 0.000 mm 1.3 km/h
21:50 19.3 °C 17.3 °C 19.3 °C 88% 999.4 hPa 0 W/m² 0.0 mm 0.000 mm 0.0 km/h
21:55 19.3 °C 17.3 °C 19.3 °C 88% 999.5 hPa 0 W/m² 0.0 mm 0.000 mm 0.1 km/h
22:00 19.2 °C 17.3 °C 19.2 °C 89% 999.6 hPa 0 W/m² 0.0 mm 0.000 mm 0.7 km/h
22:05 19.2 °C 17.3 °C 19.2 °C 89% 999.6 hPa 0 W/m² 0.0 mm 0.000 mm 1.1 km/h
22:10 19.1 °C 17.2 °C 19.1 °C 89% 999.5 hPa 0 W/m² 0.0 mm 0.000 mm 0.8 km/h
22:15 18.9 °C 17.2 °C 18.9 °C 90% 999.8 hPa 0 W/m² 0.0 mm 0.000 mm 1.2 km/h
22:20 18.8 °C 17.1 °C 18.8 °C 90% 999.6 hPa 0 W/m² 0.0 mm 0.000 mm 0.3 km/h
22:25 18.7 °C 17.0 °C 18.7 °C 90% 999.7 hPa 0 W/m² 0.0 mm 0.000 mm 0.0 km/h
22:30 18.6 °C 16.9 °C 18.6 °C 90% 999.7 hPa 0 W/m² 0.0 mm 0.000 mm 0.0 km/h
22:35 18.4 °C 16.7 °C 18.4 °C 90% 999.8 hPa 0 W/m² 0.0 mm 0.000 mm 0.0 km/h
22:40 18.3 °C 16.6 °C 18.3 °C 90% 999.9 hPa 0 W/m² 0.0 mm 0.000 mm 0.0 km/h
22:45 18.2 °C 16.5 °C 18.2 °C 90% 1000.0 hPa 0 W/m² 0.0 mm 0.000 mm 0.0 km/h
22:50 18.2 °C 16.5 °C 18.2 °C 90% 1000.0 hPa 0 W/m² 0.0 mm 0.000 mm 0.0 km/h
22:55 18.1 °C 16.6 °C 18.1 °C 91% 999.9 hPa 0 W/m² 0.0 mm 0.000 mm 0.0 km/h
23:00 18.1 °C 16.6 °C 18.1 °C 91% 999.9 hPa 0 W/m² 0.0 mm 0.000 mm 0.3 km/h
23:05 18.0 °C 16.5 °C 18.0 °C 91% 1000.0 hPa 0 W/m² 0.0 mm 0.000 mm 0.0 km/h